sensor_id;sensor_type;location;lat;lon;timestamp;pressure;altitude;pressure_sealevel;temperature;humidity
21395;BME280;10858;42.714;23.180;2023-03-05T00:01:36;93948.31;;;8.20;72.23
21395;BME280;10858;42.714;23.180;2023-03-05T00:04:04;93955.13;;;8.23;71.75
21395;BME280;10858;42.714;23.180;2023-03-05T00:06:32;93944.88;;;7.99;72.55
21395;BME280;10858;42.714;23.180;2023-03-05T00:08:59;93950.56;;;8.04;72.16
21395;BME280;10858;42.714;23.180;2023-03-05T00:11:27;93943.69;;;8.13;73.00
21395;BME280;10858;42.714;23.180;2023-03-05T00:13:55;93951.75;;;8.11;72.73
21395;BME280;10858;42.714;23.180;2023-03-05T00:16:22;93945.81;;;7.98;73.59
21395;BME280;10858;42.714;23.180;2023-03-05T00:18:52;93943.19;;;7.98;72.75
21395;BME280;10858;42.714;23.180;2023-03-05T00:21:20;93937.00;;;7.88;71.98
21395;BME280;10858;42.714;23.180;2023-03-05T00:23:47;93938.88;;;7.97;71.90
21395;BME280;10858;42.714;23.180;2023-03-05T00:26:16;93945.06;;;8.07;71.46
21395;BME280;10858;42.714;23.180;2023-03-05T00:28:43;93934.72;;;8.04;71.86
21395;BME280;10858;42.714;23.180;2023-03-05T00:31:09;93932.44;;;7.90;70.75
21395;BME280;10858;42.714;23.180;2023-03-05T00:33:35;93932.09;;;7.84;71.04
21395;BME280;10858;42.714;23.180;2023-03-05T00:36:05;93931.28;;;7.83;71.08
21395;BME280;10858;42.714;23.180;2023-03-05T00:38:32;93931.41;;;7.82;70.77
21395;BME280;10858;42.714;23.180;2023-03-05T00:40:59;93926.00;;;7.83;70.31
21395;BME280;10858;42.714;23.180;2023-03-05T00:43:26;93925.72;;;7.86;70.64
21395;BME280;10858;42.714;23.180;2023-03-05T00:45:52;93918.00;;;7.94;70.21
21395;BME280;10858;42.714;23.180;2023-03-05T00:48:18;93917.63;;;7.78;70.29
21395;BME280;10858;42.714;23.180;2023-03-05T00:50:45;93915.75;;;7.90;70.38
21395;BME280;10858;42.714;23.180;2023-03-05T00:53:11;93911.06;;;7.93;69.92
21395;BME280;10858;42.714;23.180;2023-03-05T00:55:37;93905.97;;;7.81;69.98
21395;BME280;10858;42.714;23.180;2023-03-05T00:58:03;93899.47;;;7.85;70.38
21395;BME280;10858;42.714;23.180;2023-03-05T01:00:29;93901.19;;;7.95;69.89
21395;BME280;10858;42.714;23.180;2023-03-05T01:02:56;93893.81;;;7.89;69.37
21395;BME280;10858;42.714;23.180;2023-03-05T01:05:22;93907.63;;;7.82;70.36
21395;BME280;10858;42.714;23.180;2023-03-05T01:07:52;93902.06;;;7.75;69.62
21395;BME280;10858;42.714;23.180;2023-03-05T01:10:19;93885.81;;;7.80;70.54
21395;BME280;10858;42.714;23.180;2023-03-05T01:12:46;93895.75;;;7.66;69.87
21395;BME280;10858;42.714;23.180;2023-03-05T01:15:12;93887.63;;;7.79;69.80
21395;BME280;10858;42.714;23.180;2023-03-05T01:17:38;93895.09;;;7.74;69.92
21395;BME280;10858;42.714;23.180;2023-03-05T01:20:05;93890.69;;;7.84;69.12
21395;BME280;10858;42.714;23.180;2023-03-05T01:22:32;93893.81;;;7.89;68.18
21395;BME280;10858;42.714;23.180;2023-03-05T01:24:58;93897.50;;;7.77;69.19
21395;BME280;10858;42.714;23.180;2023-03-05T01:27:25;93888.78;;;7.86;68.06
21395;BME280;10858;42.714;23.180;2023-03-05T01:29:51;93888.25;;;7.92;67.50
21395;BME280;10858;42.714;23.180;2023-03-05T01:32:17;93888.88;;;8.05;67.64
21395;BME280;10858;42.714;23.180;2023-03-05T01:34:43;93888.34;;;8.11;67.24
21395;BME280;10858;42.714;23.180;2023-03-05T01:37:09;93886.94;;;8.07;67.26
21395;BME280;10858;42.714;23.180;2023-03-05T01:39:35;93892.84;;;8.00;67.92
21395;BME280;10858;42.714;23.180;2023-03-05T01:42:02;93881.72;;;7.96;68.42
21395;BME280;10858;42.714;23.180;2023-03-05T01:44:30;93888.00;;;7.95;67.92
21395;BME280;10858;42.714;23.180;2023-03-05T01:46:57;93883.59;;;8.05;67.23
21395;BME280;10858;42.714;23.180;2023-03-05T01:49:37;93877.50;;;7.84;67.30
21395;BME280;10858;42.714;23.180;2023-03-05T01:54:46;93878.84;;;7.99;67.57
21395;BME280;10858;42.714;23.180;2023-03-05T01:57:27;93884.72;;;8.12;67.11
21395;BME280;10858;42.714;23.180;2023-03-05T02:00:02;93881.41;;;7.90;67.77
21395;BME280;10858;42.714;23.180;2023-03-05T02:02:31;93883.88;;;7.82;68.86
21395;BME280;10858;42.714;23.180;2023-03-05T02:05:03;93880.72;;;7.88;67.63
21395;BME280;10858;42.714;23.180;2023-03-05T02:07:31;93884.91;;;7.90;67.18
21395;BME280;10858;42.714;23.180;2023-03-05T02:09:58;93885.19;;;7.87;68.09
21395;BME280;10858;42.714;23.180;2023-03-05T02:12:25;93889.56;;;7.77;68.44
21395;BME280;10858;42.714;23.180;2023-03-05T02:14:52;93889.09;;;7.72;69.57
21395;BME280;10858;42.714;23.180;2023-03-05T02:17:26;93890.16;;;7.39;71.25
21395;BME280;10858;42.714;23.180;2023-03-05T02:19:55;93891.19;;;7.48;71.36
21395;BME280;10858;42.714;23.180;2023-03-05T02:22:23;93889.38;;;7.28;72.48
21395;BME280;10858;42.714;23.180;2023-03-05T02:24:50;93892.28;;;7.25;72.81
21395;BME280;10858;42.714;23.180;2023-03-05T02:27:17;93883.66;;;7.23;72.79
21395;BME280;10858;42.714;23.180;2023-03-05T02:29:46;93889.44;;;7.17;73.13
21395;BME280;10858;42.714;23.180;2023-03-05T02:32:13;93889.16;;;7.20;73.69
21395;BME280;10858;42.714;23.180;2023-03-05T02:34:39;93881.72;;;7.25;73.24
21395;BME280;10858;42.714;23.180;2023-03-05T02:37:06;93883.28;;;7.27;72.99
21395;BME280;10858;42.714;23.180;2023-03-05T02:39:34;93883.53;;;7.24;72.64
21395;BME280;10858;42.714;23.180;2023-03-05T02:42:01;93886.44;;;7.21;72.86
21395;BME280;10858;42.714;23.180;2023-03-05T02:44:27;93891.09;;;7.18;73.43
21395;BME280;10858;42.714;23.180;2023-03-05T02:46:53;93895.47;;;7.08;72.92
21395;BME280;10858;42.714;23.180;2023-03-05T02:49:19;93890.53;;;7.14;71.93
21395;BME280;10858;42.714;23.180;2023-03-05T02:51:45;93902.66;;;7.06;71.92
21395;BME280;10858;42.714;23.180;2023-03-05T02:54:11;93893.47;;;7.00;72.49
21395;BME280;10858;42.714;23.180;2023-03-05T02:56:38;93887.34;;;7.00;72.44
21395;BME280;10858;42.714;23.180;2023-03-05T02:59:04;93897.88;;;7.00;72.63
21395;BME280;10858;42.714;23.180;2023-03-05T03:01:30;93893.94;;;7.05;72.23
21395;BME280;10858;42.714;23.180;2023-03-05T03:03:57;93902.09;;;7.02;71.70
21395;BME280;10858;42.714;23.180;2023-03-05T03:06:23;93908.28;;;7.12;71.96
21395;BME280;10858;42.714;23.180;2023-03-05T03:08:49;93901.84;;;7.26;70.94
21395;BME280;10858;42.714;23.180;2023-03-05T03:11:16;93909.13;;;7.13;71.62
21395;BME280;10858;42.714;23.180;2023-03-05T03:13:44;93899.28;;;7.15;71.34
21395;BME280;10858;42.714;23.180;2023-03-05T03:16:13;93906.78;;;6.99;72.04
21395;BME280;10858;42.714;23.180;2023-03-05T03:18:40;93902.25;;;6.89;72.88
21395;BME280;10858;42.714;23.180;2023-03-05T03:21:07;93893.53;;;6.89;72.72
21395;BME280;10858;42.714;23.180;2023-03-05T03:23:34;93895.13;;;6.69;73.20
21395;BME280;10858;42.714;23.180;2023-03-05T03:26:00;93901.94;;;6.72;73.29
21395;BME280;10858;42.714;23.180;2023-03-05T03:28:26;93892.97;;;6.63;73.94
21395;BME280;10858;42.714;23.180;2023-03-05T03:30:52;93900.00;;;6.85;73.43
21395;BME280;10858;42.714;23.180;2023-03-05T03:33:19;93897.16;;;6.66;73.52
21395;BME280;10858;42.714;23.180;2023-03-05T03:35:45;93900.31;;;6.92;73.16
21395;BME280;10858;42.714;23.180;2023-03-05T03:38:12;93898.88;;;6.87;72.92
21395;BME280;10858;42.714;23.180;2023-03-05T03:40:42;93904.28;;;6.97;72.64
21395;BME280;10858;42.714;23.180;2023-03-05T03:43:08;93897.84;;;7.11;72.41
21395;BME280;10858;42.714;23.180;2023-03-05T03:45:38;93904.44;;;6.84;73.03
21395;BME280;10858;42.714;23.180;2023-03-05T03:48:08;93901.94;;;7.04;72.08
21395;BME280;10858;42.714;23.180;2023-03-05T03:50:38;93899.91;;;7.28;71.73
21395;BME280;10858;42.714;23.180;2023-03-05T03:53:05;93904.66;;;7.45;71.12
21395;BME280;10858;42.714;23.180;2023-03-05T03:55:31;93907.44;;;7.12;71.80
21395;BME280;10858;42.714;23.180;2023-03-05T03:57:57;93910.19;;;7.10;72.11
21395;BME280;10858;42.714;23.180;2023-03-05T04:00:24;93897.69;;;7.23;71.10
21395;BME280;10858;42.714;23.180;2023-03-05T04:02:50;93898.13;;;7.28;71.45
21395;BME280;10858;42.714;23.180;2023-03-05T04:05:16;93903.13;;;7.11;71.24
21395;BME280;10858;42.714;23.180;2023-03-05T04:07:42;93901.03;;;6.94;71.70
21395;BME280;10858;42.714;23.180;2023-03-05T04:10:11;93903.34;;;7.19;70.96
21395;BME280;10858;42.714;23.180;2023-03-05T04:12:37;93904.25;;;7.29;70.77
21395;BME280;10858;42.714;23.180;2023-03-05T04:15:04;93905.50;;;7.14;70.08
21395;BME280;10858;42.714;23.180;2023-03-05T04:17:33;93901.00;;;6.73;71.59
21395;BME280;10858;42.714;23.180;2023-03-05T04:19:59;93902.06;;;6.70;71.94
21395;BME280;10858;42.714;23.180;2023-03-05T04:22:25;93898.47;;;6.71;72.01
21395;BME280;10858;42.714;23.180;2023-03-05T04:24:51;93898.81;;;6.78;71.77
21395;BME280;10858;42.714;23.180;2023-03-05T04:27:17;93901.53;;;6.87;71.38
21395;BME280;10858;42.714;23.180;2023-03-05T04:29:44;93897.97;;;6.77;71.01
21395;BME280;10858;42.714;23.180;2023-03-05T04:32:10;93897.47;;;6.83;71.22
21395;BME280;10858;42.714;23.180;2023-03-05T04:34:37;93900.22;;;6.82;70.97
21395;BME280;10858;42.714;23.180;2023-03-05T04:37:03;93899.88;;;6.86;70.91
21395;BME280;10858;42.714;23.180;2023-03-05T04:39:29;93901.03;;;6.94;70.76
21395;BME280;10858;42.714;23.180;2023-03-05T04:41:56;93896.25;;;6.87;70.62
21395;BME280;10858;42.714;23.180;2023-03-05T04:44:22;93901.00;;;6.73;70.30
21395;BME280;10858;42.714;23.180;2023-03-05T04:46:50;93900.09;;;6.83;71.06
21395;BME280;10858;42.714;23.180;2023-03-05T04:49:17;93898.66;;;6.91;70.47
21395;BME280;10858;42.714;23.180;2023-03-05T04:51:43;93901.56;;;6.76;69.90
21395;BME280;10858;42.714;23.180;2023-03-05T04:54:09;93899.72;;;6.88;69.94
21395;BME280;10858;42.714;23.180;2023-03-05T04:56:35;93900.59;;;6.88;70.27
21395;BME280;10858;42.714;23.180;2023-03-05T04:59:01;93898.28;;;6.95;70.00
21395;BME280;10858;42.714;23.180;2023-03-05T05:01:27;93899.38;;;6.93;69.82
21395;BME280;10858;42.714;23.180;2023-03-05T05:03:53;93901.81;;;6.73;69.76
21395;BME280;10858;42.714;23.180;2023-03-05T05:06:20;93900.50;;;6.68;70.21
21395;BME280;10858;42.714;23.180;2023-03-05T05:08:46;93894.84;;;6.83;69.14
21395;BME280;10858;42.714;23.180;2023-03-05T05:11:13;93898.88;;;6.87;69.07
21395;BME280;10858;42.714;23.180;2023-03-05T05:13:39;93897.69;;;6.92;69.77
21395;BME280;10858;42.714;23.180;2023-03-05T05:16:06;93905.91;;;6.66;69.03
21395;BME280;10858;42.714;23.180;2023-03-05T05:18:32;93903.44;;;6.97;68.63
21395;BME280;10858;42.714;23.180;2023-03-05T05:20:59;93901.75;;;6.96;68.35
21395;BME280;10858;42.714;23.180;2023-03-05T05:23:26;93903.22;;;6.88;68.29
21395;BME280;10858;42.714;23.180;2023-03-05T05:25:59;93908.50;;;6.77;68.37
21395;BME280;10858;42.714;23.180;2023-03-05T05:28:26;93905.50;;;6.82;68.78
21395;BME280;10858;42.714;23.180;2023-03-05T05:30:52;93907.78;;;6.75;68.03
21395;BME280;10858;42.714;23.180;2023-03-05T05:33:20;93906.47;;;6.81;68.18
21395;BME280;10858;42.714;23.180;2023-03-05T05:35:46;93913.47;;;7.03;66.89
21395;BME280;10858;42.714;23.180;2023-03-05T05:38:12;93911.34;;;6.97;66.56
21395;BME280;10858;42.714;23.180;2023-03-05T05:40:39;93916.06;;;7.14;66.23
21395;BME280;10858;42.714;23.180;2023-03-05T05:43:06;93909.00;;;7.35;64.82
21395;BME280;10858;42.714;23.180;2023-03-05T05:45:32;93916.47;;;7.30;65.24
21395;BME280;10858;42.714;23.180;2023-03-05T05:47:58;93921.50;;;7.33;65.37
21395;BME280;10858;42.714;23.180;2023-03-05T05:50:24;93922.41;;;7.43;63.42
21395;BME280;10858;42.714;23.180;2023-03-05T05:52:52;93925.28;;;7.19;64.06
21395;BME280;10858;42.714;23.180;2023-03-05T05:55:18;93933.63;;;7.24;64.66
21395;BME280;10858;42.714;23.180;2023-03-05T05:57:44;93924.78;;;7.87;62.52
21395;BME280;10858;42.714;23.180;2023-03-05T06:00:12;93923.75;;;7.99;61.41
21395;BME280;10858;42.714;23.180;2023-03-05T06:02:40;93927.66;;;8.25;60.48
21395;BME280;10858;42.714;23.180;2023-03-05T06:05:07;93930.41;;;7.73;60.30
21395;BME280;10858;42.714;23.180;2023-03-05T06:07:35;93932.13;;;7.63;61.39
21395;BME280;10858;42.714;23.180;2023-03-05T06:10:01;93931.66;;;7.58;61.15
21395;BME280;10858;42.714;23.180;2023-03-05T06:12:28;93935.22;;;7.68;60.74
21395;BME280;10858;42.714;23.180;2023-03-05T06:14:54;93927.19;;;8.00;60.41
21395;BME280;10858;42.714;23.180;2023-03-05T06:17:21;93937.34;;;7.74;60.42
21395;BME280;10858;42.714;23.180;2023-03-05T06:19:47;93938.69;;;7.89;60.39
21395;BME280;10858;42.714;23.180;2023-03-05T06:22:13;93938.28;;;7.94;59.52
21395;BME280;10858;42.714;23.180;2023-03-05T06:24:40;93937.81;;;8.09;60.03
21395;BME280;10858;42.714;23.180;2023-03-05T06:27:06;93937.13;;;7.87;60.22
21395;BME280;10858;42.714;23.180;2023-03-05T06:29:32;93936.84;;;8.10;59.58
21395;BME280;10858;42.714;23.180;2023-03-05T06:31:58;93938.34;;;8.03;59.22
21395;BME280;10858;42.714;23.180;2023-03-05T06:34:24;93930.16;;;7.86;58.92
21395;BME280;10858;42.714;23.180;2023-03-05T06:36:51;93940.16;;;7.82;60.10
21395;BME280;10858;42.714;23.180;2023-03-05T06:39:17;93938.63;;;7.59;59.60
21395;BME280;10858;42.714;23.180;2023-03-05T06:41:43;93943.91;;;7.59;61.39
21395;BME280;10858;42.714;23.180;2023-03-05T06:44:09;93942.63;;;7.74;59.34
21395;BME280;10858;42.714;23.180;2023-03-05T06:46:36;93946.97;;;8.05;58.79
21395;BME280;10858;42.714;23.180;2023-03-05T06:49:04;93949.84;;;8.43;58.03
21395;BME280;10858;42.714;23.180;2023-03-05T06:51:36;93955.44;;;9.28;56.37
21395;BME280;10858;42.714;23.180;2023-03-05T06:54:09;93953.66;;;9.38;55.88
21395;BME280;10858;42.714;23.180;2023-03-05T06:56:38;93957.94;;;10.06;53.27
21395;BME280;10858;42.714;23.180;2023-03-05T06:59:05;93947.63;;;10.22;52.84
21395;BME280;10858;42.714;23.180;2023-03-05T07:01:32;93955.00;;;11.37;49.47
21395;BME280;10858;42.714;23.180;2023-03-05T07:03:58;93953.31;;;12.24;46.47
21395;BME280;10858;42.714;23.180;2023-03-05T07:06:25;93960.59;;;11.78;47.96
21395;BME280;10858;42.714;23.180;2023-03-05T07:08:56;93957.78;;;10.90;49.88
21395;BME280;10858;42.714;23.180;2023-03-05T07:11:23;93961.06;;;9.63;51.85
21395;BME280;10858;42.714;23.180;2023-03-05T07:13:50;93964.41;;;9.65;54.20
21395;BME280;10858;42.714;23.180;2023-03-05T07:16:22;93965.19;;;9.94;52.81
21395;BME280;10858;42.714;23.180;2023-03-05T07:18:49;93965.50;;;9.34;54.17
21395;BME280;10858;42.714;23.180;2023-03-05T07:21:22;93959.88;;;8.99;54.61
21395;BME280;10858;42.714;23.180;2023-03-05T07:23:49;93957.53;;;9.15;55.45
21395;BME280;10858;42.714;23.180;2023-03-05T07:26:17;93963.78;;;9.14;55.18
21395;BME280;10858;42.714;23.180;2023-03-05T07:28:44;93964.78;;;9.13;55.03
21395;BME280;10858;42.714;23.180;2023-03-05T07:31:15;93971.34;;;9.66;54.64
21395;BME280;10858;42.714;23.180;2023-03-05T07:33:43;93955.59;;;9.74;54.53
21395;BME280;10858;42.714;23.180;2023-03-05T07:36:10;93956.88;;;9.61;53.80
21395;BME280;10858;42.714;23.180;2023-03-05T07:38:36;93957.56;;;9.72;54.15
21395;BME280;10858;42.714;23.180;2023-03-05T07:41:08;93960.19;;;9.72;54.04
21395;BME280;10858;42.714;23.180;2023-03-05T07:43:35;93952.31;;;10.38;53.16
21395;BME280;10858;42.714;23.180;2023-03-05T07:46:09;93955.59;;;11.31;51.17
21395;BME280;10858;42.714;23.180;2023-03-05T07:48:36;93956.81;;;10.64;51.21
21395;BME280;10858;42.714;23.180;2023-03-05T07:51:09;93953.13;;;11.47;51.71
21395;BME280;10858;42.714;23.180;2023-03-05T07:53:36;93953.06;;;10.94;51.02
21395;BME280;10858;42.714;23.180;2023-03-05T07:56:02;93962.09;;;10.74;51.96
21395;BME280;10858;42.714;23.180;2023-03-05T07:58:28;93953.22;;;12.33;47.86
21395;BME280;10858;42.714;23.180;2023-03-05T08:00:54;93951.63;;;11.97;49.86
21395;BME280;10858;42.714;23.180;2023-03-05T08:03:21;93959.53;;;12.58;48.40
21395;BME280;10858;42.714;23.180;2023-03-05T08:05:47;93956.41;;;12.96;47.42
21395;BME280;10858;42.714;23.180;2023-03-05T08:08:13;93958.41;;;12.43;48.74
21395;BME280;10858;42.714;23.180;2023-03-05T08:10:41;93952.09;;;11.75;48.76
21395;BME280;10858;42.714;23.180;2023-03-05T08:13:07;93952.97;;;10.86;50.22
21395;BME280;10858;42.714;23.180;2023-03-05T08:15:35;93952.91;;;11.40;50.57
21395;BME280;10858;42.714;23.180;2023-03-05T08:18:03;93957.69;;;10.92;50.06
21395;BME280;10858;42.714;23.180;2023-03-05T08:20:29;93953.03;;;10.67;51.59
21395;BME280;10858;42.714;23.180;2023-03-05T08:22:56;93955.97;;;10.91;50.45
21395;BME280;10858;42.714;23.180;2023-03-05T08:25:22;93956.03;;;11.08;50.21
21395;BME280;10858;42.714;23.180;2023-03-05T08:27:48;93950.97;;;10.24;52.22
21395;BME280;10858;42.714;23.180;2023-03-05T08:30:18;93959.19;;;10.21;52.04
21395;BME280;10858;42.714;23.180;2023-03-05T08:32:45;93948.19;;;10.16;51.25
21395;BME280;10858;42.714;23.180;2023-03-05T08:35:13;93943.81;;;10.98;48.79
21395;BME280;10858;42.714;23.180;2023-03-05T08:37:39;93940.56;;;11.04;47.11
21395;BME280;10858;42.714;23.180;2023-03-05T08:40:06;93941.81;;;9.90;49.96
21395;BME280;10858;42.714;23.180;2023-03-05T08:42:32;93938.81;;;10.21;49.81
21395;BME280;10858;42.714;23.180;2023-03-05T08:44:58;93929.38;;;10.46;51.13
21395;BME280;10858;42.714;23.180;2023-03-05T08:47:24;93935.59;;;10.91;48.93
21395;BME280;10858;42.714;23.180;2023-03-05T08:49:52;93927.50;;;11.10;49.91
21395;BME280;10858;42.714;23.180;2023-03-05T08:52:21;93925.34;;;11.59;49.59
21395;BME280;10858;42.714;23.180;2023-03-05T08:54:48;93928.31;;;12.68;45.26
21395;BME280;10858;42.714;23.180;2023-03-05T08:57:14;93920.78;;;12.30;46.04
21395;BME280;10858;42.714;23.180;2023-03-05T08:59:40;93919.94;;;12.29;45.76
21395;BME280;10858;42.714;23.180;2023-03-05T09:02:06;93920.03;;;11.59;46.85
21395;BME280;10858;42.714;23.180;2023-03-05T09:04:35;93916.16;;;12.06;45.69
21395;BME280;10858;42.714;23.180;2023-03-05T09:07:02;93922.09;;;11.82;45.71
21395;BME280;10858;42.714;23.180;2023-03-05T09:09:28;93910.00;;;11.18;44.78
21395;BME280;10858;42.714;23.180;2023-03-05T09:11:57;93911.19;;;11.50;46.33
21395;BME280;10858;42.714;23.180;2023-03-05T09:14:23;93905.13;;;12.01;44.08
21395;BME280;10858;42.714;23.180;2023-03-05T09:16:50;93903.94;;;12.80;44.09
21395;BME280;10858;42.714;23.180;2023-03-05T09:19:16;93897.09;;;12.19;44.02
21395;BME280;10858;42.714;23.180;2023-03-05T09:21:42;93902.81;;;11.80;44.37
21395;BME280;10858;42.714;23.180;2023-03-05T09:24:08;93896.25;;;11.92;43.86
21395;BME280;10858;42.714;23.180;2023-03-05T09:26:37;93897.56;;;11.53;44.24
21395;BME280;10858;42.714;23.180;2023-03-05T09:29:04;93902.06;;;11.35;44.29
21395;BME280;10858;42.714;23.180;2023-03-05T09:31:32;93895.53;;;11.30;44.06
21395;BME280;10858;42.714;23.180;2023-03-05T09:33:58;93901.44;;;12.20;43.17
21395;BME280;10858;42.714;23.180;2023-03-05T09:36:27;93895.56;;;12.08;40.65
21395;BME280;10858;42.714;23.180;2023-03-05T09:38:54;93897.19;;;11.13;44.49
21395;BME280;10858;42.714;23.180;2023-03-05T09:41:25;93889.25;;;11.48;43.09
21395;BME280;10858;42.714;23.180;2023-03-05T09:44:04;93887.34;;;11.58;42.49
21395;BME280;10858;42.714;23.180;2023-03-05T09:54:57;93877.63;;;12.77;41.15
21395;BME280;10858;42.714;23.180;2023-03-05T09:57:44;93873.59;;;12.32;42.45
21395;BME280;10858;42.714;23.180;2023-03-05T10:00:46;93867.06;;;11.75;41.59
21395;BME280;10858;42.714;23.180;2023-03-05T10:06:31;93870.31;;;10.81;44.11
21395;BME280;10858;42.714;23.180;2023-03-05T10:11:58;93862.44;;;11.59;42.55
21395;BME280;10858;42.714;23.180;2023-03-05T10:14:29;93862.28;;;11.61;42.87
21395;BME280;10858;42.714;23.180;2023-03-05T10:22:58;93843.56;;;11.27;42.60
21395;BME280;10858;42.714;23.180;2023-03-05T10:28:32;93849.41;;;12.51;41.58
21395;BME280;10858;42.714;23.180;2023-03-05T10:39:49;93825.28;;;12.94;39.87
21395;BME280;10858;42.714;23.180;2023-03-05T10:42:40;93809.22;;;13.52;38.90
21395;BME280;10858;42.714;23.180;2023-03-05T10:45:19;93811.03;;;13.35;39.02
21395;BME280;10858;42.714;23.180;2023-03-05T10:50:27;93806.19;;;13.31;39.65
21395;BME280;10858;42.714;23.180;2023-03-05T10:55:35;93797.38;;;13.14;42.21
21395;BME280;10858;42.714;23.180;2023-03-05T10:58:14;93800.38;;;13.35;39.74
21395;BME280;10858;42.714;23.180;2023-03-05T11:03:57;93807.59;;;12.77;39.40
21395;BME280;10858;42.714;23.180;2023-03-05T11:06:41;93789.75;;;12.61;42.27
21395;BME280;10858;42.714;23.180;2023-03-05T11:09:18;93792.25;;;12.63;42.11
21395;BME280;10858;42.714;23.180;2023-03-05T11:12:02;93784.25;;;12.63;41.56
21395;BME280;10858;42.714;23.180;2023-03-05T11:14:34;93781.50;;;12.97;41.07
21395;BME280;10858;42.714;23.180;2023-03-05T11:17:21;93768.25;;;13.37;41.53
21395;BME280;10858;42.714;23.180;2023-03-05T11:19:49;93770.75;;;13.06;40.83
21395;BME280;10858;42.714;23.180;2023-03-05T11:22:17;93761.44;;;13.26;41.88
21395;BME280;10858;42.714;23.180;2023-03-05T11:27:37;93763.03;;;12.95;42.61
21395;BME280;10858;42.714;23.180;2023-03-05T11:30:18;93761.59;;;12.51;42.92
21395;BME280;10858;42.714;23.180;2023-03-05T11:32:46;93760.34;;;12.71;41.80
21395;BME280;10858;42.714;23.180;2023-03-05T11:35:29;93749.94;;;13.18;42.15
21395;BME280;10858;42.714;23.180;2023-03-05T11:38:01;93747.09;;;13.11;41.81
21395;BME280;10858;42.714;23.180;2023-03-05T11:40:31;93743.47;;;13.44;39.45
21395;BME280;10858;42.714;23.180;2023-03-05T11:43:02;93740.75;;;12.80;42.02
21395;BME280;10858;42.714;23.180;2023-03-05T11:45:30;93745.94;;;12.32;43.53
21395;BME280;10858;42.714;23.180;2023-03-05T11:48:24;93737.34;;;12.54;43.69
21395;BME280;10858;42.714;23.180;2023-03-05T11:50:55;93734.94;;;12.85;41.64
21395;BME280;10858;42.714;23.180;2023-03-05T11:53:33;93721.16;;;13.05;40.68
21395;BME280;10858;42.714;23.180;2023-03-05T12:01:21;93715.63;;;13.39;39.45
21395;BME280;10858;42.714;23.180;2023-03-05T12:03:49;93707.47;;;13.64;38.63
21395;BME280;10858;42.714;23.180;2023-03-05T12:06:39;93702.84;;;13.26;38.32
21395;BME280;10858;42.714;23.180;2023-03-05T12:12:03;93698.38;;;14.36;38.29
21395;BME280;10858;42.714;23.180;2023-03-05T12:14:42;93701.69;;;13.92;37.61
21395;BME280;10858;42.714;23.180;2023-03-05T12:17:27;93693.16;;;13.49;39.21
21395;BME280;10858;42.714;23.180;2023-03-05T12:20:05;93699.31;;;13.42;38.33
21395;BME280;10858;42.714;23.180;2023-03-05T12:22:39;93697.84;;;13.31;38.12
21395;BME280;10858;42.714;23.180;2023-03-05T12:27:57;93685.34;;;15.55;33.80
21395;BME280;10858;42.714;23.180;2023-03-05T12:33:00;93681.66;;;16.43;33.85
21395;BME280;10858;42.714;23.180;2023-03-05T12:35:30;93678.09;;;16.72;33.03
21395;BME280;10858;42.714;23.180;2023-03-05T12:38:03;93672.28;;;16.18;33.61
21395;BME280;10858;42.714;23.180;2023-03-05T12:40:32;93668.09;;;16.45;33.99
21395;BME280;10858;42.714;23.180;2023-03-05T12:43:32;93660.69;;;18.35;31.27
21395;BME280;10858;42.714;23.180;2023-03-05T12:46:24;93658.09;;;18.55;30.88
21395;BME280;10858;42.714;23.180;2023-03-05T12:48:51;93659.81;;;16.10;33.18
21395;BME280;10858;42.714;23.180;2023-03-05T12:51:34;93665.22;;;14.84;35.55
21395;BME280;10858;42.714;23.180;2023-03-05T12:54:26;93640.34;;;14.00;37.39
21395;BME280;10858;42.714;23.180;2023-03-05T12:56:56;93644.50;;;13.55;37.21
21395;BME280;10858;42.714;23.180;2023-03-05T12:59:28;93633.09;;;13.07;38.43
21395;BME280;10858;42.714;23.180;2023-03-05T13:02:03;93643.41;;;12.69;38.96
21395;BME280;10858;42.714;23.180;2023-03-05T13:04:43;93641.25;;;12.89;38.78
21395;BME280;10858;42.714;23.180;2023-03-05T13:07:16;93640.16;;;12.02;40.36
21395;BME280;10858;42.714;23.180;2023-03-05T13:09:51;93641.84;;;12.19;40.38
21395;BME280;10858;42.714;23.180;2023-03-05T13:12:19;93645.81;;;12.15;41.06
21395;BME280;10858;42.714;23.180;2023-03-05T13:15:05;93648.34;;;12.24;41.13
21395;BME280;10858;42.714;23.180;2023-03-05T13:17:38;93644.78;;;11.58;41.45
21395;BME280;10858;42.714;23.180;2023-03-05T13:20:37;93647.72;;;11.80;42.61
21395;BME280;10858;42.714;23.180;2023-03-05T13:28:21;93629.25;;;12.53;40.22
21395;BME280;10858;42.714;23.180;2023-03-05T13:31:02;93636.50;;;12.11;40.19
21395;BME280;10858;42.714;23.180;2023-03-05T13:33:34;93632.53;;;12.23;39.71
21395;BME280;10858;42.714;23.180;2023-03-05T13:36:01;93633.91;;;12.59;40.14
21395;BME280;10858;42.714;23.180;2023-03-05T13:38:33;93628.13;;;12.71;38.57
21395;BME280;10858;42.714;23.180;2023-03-05T13:41:19;93633.59;;;12.46;38.64
21395;BME280;10858;42.714;23.180;2023-03-05T13:43:55;93637.25;;;13.17;38.95
21395;BME280;10858;42.714;23.180;2023-03-05T13:46:32;93637.91;;;12.71;39.66
21395;BME280;10858;42.714;23.180;2023-03-05T13:49:17;93634.25;;;12.40;40.19
21395;BME280;10858;42.714;23.180;2023-03-05T13:51:49;93632.41;;;11.74;41.61
21395;BME280;10858;42.714;23.180;2023-03-05T13:54:16;93631.16;;;12.03;40.90
21395;BME280;10858;42.714;23.180;2023-03-05T13:57:30;93635.09;;;11.82;41.18
21395;BME280;10858;42.714;23.180;2023-03-05T13:59:57;93642.25;;;11.48;42.25
21395;BME280;10858;42.714;23.180;2023-03-05T14:02:23;93636.59;;;10.92;42.58
21395;BME280;10858;42.714;23.180;2023-03-05T14:04:50;93641.06;;;11.17;41.71
21395;BME280;10858;42.714;23.180;2023-03-05T14:07:30;93645.59;;;10.99;41.61
21395;BME280;10858;42.714;23.180;2023-03-05T14:09:57;93633.81;;;11.27;41.84
21395;BME280;10858;42.714;23.180;2023-03-05T14:12:29;93636.94;;;11.23;41.75